Terminal Aerodrome Forecast
Issued by NWS

Home | Current Version | Previous Version | Text Only | Print | Product List | Glossary On
Versions: 1 2 3 4 5 6 7 8 9 10 11 12
477
FTUS44 KSJT 261149
TAFBBD
TAF
KBBD 261149Z 2612/2712 VRB05KT P6SM OVC015
      TEMPO 2613/2616 5SM -SHRA OVC025
     FM261600 12007KT P6SM VCSH OVC025
     FM262100 10008KT 5SM -SHRA VCTS OVC040CB
     FM270300 08006KT 5SM BR OVC025
     FM270800 04008KT 5SM -RA VCTS OVC025CB
      AMD NOT SKED=

USA.gov is the U.S. government's official web portal to all federal, state and local government web resources and services.